Time;durP1;ratioP1;P1;durP2;ratioP2;P2;SDS_P1;SDS_P2;PMS_P1;PMS_P2;Temp;Humidity;BMP_temperature;BMP_pressure;BME280_temperature;BME280_humidity;BME280_pressure;Samples;Min_cycle;Max_cycle;Signal;HPM_P1;HPM_P2
2021/07/08 00:00:25;;;;;;;1.55;1.00;;;25.40;45.90;;;;;;5006384;28;20630;-58
2021/07/08 00:02:52;;;;;;;0.80;0.80;;;25.40;45.90;;;;;;5003620;28;20824;-61
2021/07/08 00:05:20;;;;;;;1.13;0.90;;;25.40;46.00;;;;;;4997266;28;20019;-61
2021/07/08 00:07:46;;;;;;;0.95;0.88;;;25.40;46.00;;;;;;5006889;28;20057;-57
2021/07/08 00:10:16;;;;;;;2.25;1.20;;;25.40;46.10;;;;;;5006049;28;20034;-57
2021/07/08 00:12:42;;;;;;;1.33;1.05;;;25.40;46.10;;;;;;5010478;28;20339;-61
2021/07/08 00:15:11;;;;;;;1.40;1.10;;;25.40;46.10;;;;;;5013737;28;20039;-60
2021/07/08 00:17:37;;;;;;;1.05;0.95;;;25.40;46.10;;;;;;5005829;28;20037;-58
2021/07/08 00:20:08;;;;;;;1.38;0.90;;;25.40;46.10;;;;;;5008708;28;20338;-59
2021/07/08 00:22:35;;;;;;;2.00;1.20;;;25.30;46.10;;;;;;5011021;28;20136;-59
2021/07/08 00:25:01;;;;;;;1.25;0.90;;;25.40;46.10;;;;;;5006541;28;20031;-59
2021/07/08 00:27:27;;;;;;;1.17;1.00;;;25.40;46.10;;;;;;5000359;28;20057;-60
2021/07/08 00:29:52;;;;;;;1.55;0.95;;;25.40;46.10;;;;;;5004778;28;20437;-60
2021/07/08 00:32:18;;;;;;;1.00;0.90;;;25.30;46.10;;;;;;5002641;28;20026;-58
2021/07/08 00:34:44;;;;;;;1.23;0.90;;;25.30;46.10;;;;;;4999914;28;20033;-60
2021/07/08 00:37:10;;;;;;;1.45;1.17;;;25.30;46.10;;;;;;5000549;28;20484;-61
2021/07/08 00:39:36;;;;;;;0.80;0.75;;;25.30;46.20;;;;;;5001335;28;20042;-56
2021/07/08 00:42:02;;;;;;;1.17;0.82;;;25.30;46.10;;;;;;5005531;28;20077;-61
2021/07/08 00:44:28;;;;;;;1.10;1.00;;;25.30;46.20;;;;;;4997413;28;20031;-61
2021/07/08 00:46:53;;;;;;;1.45;0.82;;;25.30;46.20;;;;;;5003228;28;20042;-61
2021/07/08 00:49:19;;;;;;;1.00;0.80;;;25.30;46.20;;;;;;5004173;28;20421;-57
2021/07/08 00:51:45;;;;;;;1.05;0.80;;;25.30;46.20;;;;;;4998768;28;20037;-56
2021/07/08 00:54:11;;;;;;;1.38;0.90;;;25.30;46.20;;;;;;5004168;28;20037;-60
2021/07/08 00:56:37;;;;;;;1.15;0.90;;;25.30;46.20;;;;;;4997913;28;20132;-57
2021/07/08 00:59:07;;;;;;;1.27;1.00;;;25.30;46.20;;;;;;5004622;28;20449;-58
2021/07/08 01:01:34;;;;;;;0.90;0.70;;;25.30;46.30;;;;;;5005913;28;20084;-60
2021/07/08 01:04:02;;;;;;;1.10;0.90;;;25.30;46.30;;;;;;5011302;28;20033;-59
2021/07/08 01:06:29;;;;;;;3.00;1.00;;;25.30;46.30;;;;;;5008559;28;20361;-56
2021/07/08 01:08:55;;;;;;;1.10;0.90;;;25.20;46.20;;;;;;5013828;28;20049;-59
2021/07/08 01:11:22;;;;;;;4.32;0.85;;;25.20;46.20;;;;;;5003551;28;20206;-57
2021/07/08 01:13:48;;;;;;;1.05;0.88;;;25.30;46.20;;;;;;5012768;28;20022;-60
2021/07/08 01:16:14;;;;;;;1.35;0.80;;;25.20;46.10;;;;;;5011871;28;20040;-57
2021/07/08 01:18:40;;;;;;;1.58;0.93;;;25.20;46.20;;;;;;5008228;28;20026;-60
2021/07/08 01:21:29;;;;;;;1.25;0.90;;;25.20;46.20;;;;;;5002684;28;20376;-60
2021/07/08 01:23:58;;;;;;;1.42;0.85;;;25.30;46.20;;;;;;5000521;28;20062;-57
2021/07/08 01:26:24;;;;;;;1.48;0.85;;;25.20;46.20;;;;;;5006968;28;20088;-60
2021/07/08 01:28:52;;;;;;;1.02;0.80;;;25.20;46.10;;;;;;5003048;28;20116;-59
2021/07/08 01:31:18;;;;;;;0.80;0.75;;;25.20;46.10;;;;;;5006339;28;20160;-59
2021/07/08 01:33:45;;;;;;;1.63;1.00;;;25.20;46.20;;;;;;5005905;28;20041;-58
2021/07/08 01:36:12;;;;;;;1.17;0.88;;;25.20;46.30;;;;;;4998909;28;20105;-59
2021/07/08 01:38:38;;;;;;;1.30;0.95;;;25.20;46.30;;;;;;5006083;28;20050;-58
2021/07/08 01:41:05;;;;;;;1.10;0.82;;;25.20;46.30;;;;;;5012478;28;20029;-60
2021/07/08 01:43:38;;;;;;;0.80;0.80;;;25.20;46.30;;;;;;5002106;28;20030;-54
2021/07/08 01:46:15;;;;;;;1.63;1.00;;;25.20;46.40;;;;;;5011776;28;20037;-58
2021/07/08 01:48:43;;;;;;;1.20;1.00;;;25.20;46.40;;;;;;5011843;28;20038;-59
2021/07/08 01:51:30;;;;;;;0.75;0.60;;;25.20;46.50;;;;;;5008851;28;20037;-58
2021/07/08 01:53:59;;;;;;;0.82;0.80;;;25.20;46.50;;;;;;5009002;28;20030;-60
2021/07/08 01:56:26;;;;;;;1.27;1.02;;;25.10;46.50;;;;;;5015529;28;20030;-61
2021/07/08 01:58:52;;;;;;;1.40;0.95;;;25.10;46.50;;;;;;5010702;28;20032;-60
2021/07/08 02:01:20;;;;;;;1.02;0.80;;;25.10;46.50;;;;;;5008686;28;20448;-59
2021/07/08 02:03:46;;;;;;;2.05;0.88;;;25.10;46.60;;;;;;5019054;28;20026;-62
2021/07/08 02:06:12;;;;;;;1.10;0.80;;;25.10;46.60;;;;;;5018516;28;20460;-60
2021/07/08 02:08:38;;;;;;;1.27;1.02;;;25.10;46.60;;;;;;5015724;28;20473;-55
2021/07/08 02:11:06;;;;;;;0.98;0.80;;;25.10;46.60;;;;;;5011611;28;20022;-58
2021/07/08 02:13:33;;;;;;;1.95;1.00;;;25.10;46.60;;;;;;5005571;28;20048;-59
2021/07/08 02:16:00;;;;;;;1.50;0.85;;;25.10;46.70;;;;;;5010743;28;20038;-57
2021/07/08 02:18:26;;;;;;;1.02;0.93;;;25.10;46.70;;;;;;5012619;28;20030;-60
2021/07/08 02:20:52;;;;;;;1.63;1.00;;;25.10;46.70;;;;;;5009670;28;20095;-59
2021/07/08 02:23:17;;;;;;;2.05;0.88;;;25.10;46.80;;;;;;5014143;28;20029;-61
2021/07/08 02:25:43;;;;;;;2.08;0.95;;;25.10;46.80;;;;;;5009497;28;20116;-59
2021/07/08 02:28:10;;;;;;;1.00;0.80;;;25.10;46.80;;;;;;5009959;28;20084;-58
2021/07/08 02:30:36;;;;;;;1.70;1.10;;;25.10;46.80;;;;;;5011587;28;20042;-59
2021/07/08 02:33:02;;;;;;;1.55;0.95;;;25.10;46.90;;;;;;5009754;28;20038;-60
2021/07/08 02:35:28;;;;;;;0.93;0.80;;;25.10;46.90;;;;;;5015864;28;20046;-59
2021/07/08 02:37:54;;;;;;;1.73;1.05;;;25.10;46.90;;;;;;5009683;28;20089;-60
2021/07/08 02:40:25;;;;;;;1.67;0.90;;;25.10;46.90;;;;;;5012528;28;20025;-58
2021/07/08 02:42:52;;;;;;;1.40;0.93;;;25.10;46.90;;;;;;5009420;28;20042;-58
2021/07/08 02:45:26;;;;;;;0.88;0.80;;;25.10;46.90;;;;;;5011851;28;20023;-61
2021/07/08 02:47:53;;;;;;;1.02;0.82;;;25.10;47.00;;;;;;5004396;28;20025;-59
2021/07/08 02:50:21;;;;;;;1.30;1.10;;;25.00;46.90;;;;;;5008792;28;20034;-60
2021/07/08 02:52:47;;;;;;;0.95;0.82;;;25.00;47.00;;;;;;5007600;28;20035;-60
2021/07/08 02:55:14;;;;;;;1.52;1.10;;;25.00;47.00;;;;;;5014854;28;20112;-58
2021/07/08 02:57:41;;;;;;;1.23;0.75;;;25.00;47.00;;;;;;5023718;28;20032;-61
2021/07/08 03:00:10;;;;;;;1.25;1.05;;;25.00;47.00;;;;;;5008701;28;20034;-58
2021/07/08 03:02:36;;;;;;;1.92;0.93;;;25.00;47.00;;;;;;5013022;28;20045;-61
2021/07/08 03:05:03;;;;;;;1.30;0.82;;;25.00;47.00;;;;;;5007042;28;20120;-60
2021/07/08 03:07:29;;;;;;;1.00;0.80;;;25.00;47.00;;;;;;5011882;28;20034;-59
2021/07/08 03:09:55;;;;;;;1.27;1.00;;;25.00;47.00;;;;;;5015438;28;20054;-60
2021/07/08 03:12:21;;;;;;;1.27;1.00;;;25.00;47.10;;;;;;5010376;28;20388;-61
2021/07/08 03:14:47;;;;;;;1.73;1.15;;;25.00;47.10;;;;;;5005942;28;20038;-58
2021/07/08 03:17:12;;;;;;;1.02;0.90;;;25.00;47.10;;;;;;5021250;28;20036;-57
2021/07/08 03:19:38;;;;;;;1.50;0.93;;;25.00;47.20;;;;;;5006508;28;20030;-60
2021/07/08 03:22:04;;;;;;;1.33;0.90;;;25.00;47.20;;;;;;5009156;28;20034;-58
2021/07/08 03:24:30;;;;;;;1.40;0.90;;;25.00;47.20;;;;;;5011954;28;20029;-60
2021/07/08 03:26:56;;;;;;;1.45;1.10;;;25.00;47.20;;;;;;5004684;28;20057;-59
2021/07/08 03:29:22;;;;;;;1.38;1.20;;;25.00;47.20;;;;;;5012785;28;20034;-59
2021/07/08 03:31:48;;;;;;;1.33;1.10;;;25.00;47.20;;;;;;5013290;28;20026;-60
2021/07/08 03:34:14;;;;;;;1.13;1.02;;;25.00;47.20;;;;;;5012858;28;20438;-59
2021/07/08 03:36:39;;;;;;;2.08;1.20;;;25.00;47.30;;;;;;5014157;28;20026;-62
2021/07/08 03:39:06;;;;;;;1.25;0.98;;;25.00;47.30;;;;;;5018773;28;20038;-61
2021/07/08 03:41:32;;;;;;;1.55;1.10;;;24.90;47.30;;;;;;5013411;28;20037;-60
2021/07/08 03:43:58;;;;;;;1.70;1.13;;;24.90;47.30;;;;;;5010981;28;20030;-60
2021/07/08 03:46:24;;;;;;;1.67;1.00;;;24.90;47.30;;;;;;5007429;28;20439;-58
2021/07/08 03:48:50;;;;;;;1.95;1.35;;;25.00;47.40;;;;;;5007200;28;20061;-61
2021/07/08 03:51:16;;;;;;;1.30;0.90;;;24.90;47.40;;;;;;5006188;28;20030;-60
2021/07/08 03:53:42;;;;;;;1.52;1.15;;;24.90;47.40;;;;;;5006487;28;20125;-59
2021/07/08 03:56:08;;;;;;;1.80;1.00;;;25.00;47.50;;;;;;5011252;28;20887;-59
2021/07/08 03:58:33;;;;;;;1.45;1.00;;;25.00;47.50;;;;;;5004490;28;20108;-61
2021/07/08 04:01:00;;;;;;;2.10;1.00;;;24.90;47.50;;;;;;5004998;28;20045;-58
2021/07/08 04:03:26;;;;;;;1.60;1.00;;;24.90;47.50;;;;;;5015374;28;20052;-60
2021/07/08 04:05:51;;;;;;;1.25;1.00;;;24.90;47.60;;;;;;5006520;28;20022;-61
2021/07/08 04:08:17;;;;;;;1.88;1.10;;;24.90;48.20;;;;;;5015034;28;20044;-61
2021/07/08 04:10:44;;;;;;;0.90;0.80;;;24.90;47.60;;;;;;5020806;28;20151;-62
2021/07/08 04:13:17;;;;;;;1.20;1.10;;;25.00;47.70;;;;;;5019291;28;20357;-59
2021/07/08 04:15:46;;;;;;;1.15;1.00;;;24.90;47.70;;;;;;5023598;28;20461;-58
2021/07/08 04:18:13;;;;;;;1.05;0.90;;;24.90;47.70;;;;;;5019215;28;20029;-59
2021/07/08 04:20:39;;;;;;;0.68;0.68;;;24.90;47.70;;;;;;5009095;28;20128;-60
2021/07/08 04:23:06;;;;;;;1.23;0.98;;;24.90;47.70;;;;;;5019531;28;20022;-61
2021/07/08 04:25:33;;;;;;;3.28;1.02;;;24.90;47.70;;;;;;5007632;28;20057;-61
2021/07/08 04:28:00;;;;;;;1.85;1.10;;;25.00;47.80;;;;;;5002786;28;20061;-61
2021/07/08 04:30:26;;;;;;;1.10;1.00;;;25.00;47.90;;;;;;5006670;28;20037;-62
2021/07/08 04:32:53;;;;;;;1.58;1.13;;;24.90;47.80;;;;;;5010685;28;20143;-60
2021/07/08 04:35:25;;;;;;;1.15;1.00;;;24.90;47.80;;;;;;5006414;28;20030;-59
2021/07/08 04:37:51;;;;;;;1.58;1.00;;;24.90;47.80;;;;;;5004190;28;20044;-62
2021/07/08 04:40:19;;;;;;;1.20;1.00;;;24.90;47.90;;;;;;5010441;28;20026;-60
2021/07/08 04:42:47;;;;;;;1.15;0.93;;;24.90;47.90;;;;;;5008432;28;20081;-58
2021/07/08 04:45:13;;;;;;;1.10;0.95;;;24.90;47.90;;;;;;5012669;28;20038;-62
2021/07/08 04:47:43;;;;;;;1.50;1.00;;;24.90;47.90;;;;;;5011633;28;20686;-60
2021/07/08 04:50:12;;;;;;;1.10;1.00;;;24.90;47.90;;;;;;5016707;28;20124;-62
2021/07/08 04:52:38;;;;;;;1.33;1.15;;;24.90;48.00;;;;;;5007589;28;20476;-60
2021/07/08 04:55:05;;;;;;;1.65;1.20;;;24.90;48.00;;;;;;5013175;28;20464;-58
2021/07/08 04:57:31;;;;;;;1.38;0.80;;;24.90;48.00;;;;;;5008268;28;20034;-62
2021/07/08 04:59:57;;;;;;;1.35;1.00;;;24.90;48.00;;;;;;5009762;28;20038;-59
2021/07/08 05:02:24;;;;;;;1.45;1.13;;;24.90;48.00;;;;;;5012259;28;20045;-62
2021/07/08 05:04:50;;;;;;;1.10;0.80;;;24.90;48.10;;;;;;5014147;28;20049;-60
2021/07/08 05:07:18;;;;;;;1.27;1.10;;;25.00;48.10;;;;;;5025537;28;20025;-59
2021/07/08 05:09:45;;;;;;;1.48;1.15;;;24.90;48.20;;;;;;5023840;28;20477;-60
2021/07/08 05:12:14;;;;;;;1.20;1.10;;;24.90;48.30;;;;;;5020503;28;20112;-58
2021/07/08 05:14:41;;;;;;;1.48;1.15;;;24.90;48.30;;;;;;5032094;28;20049;-62
2021/07/08 05:17:13;;;;;;;0.80;0.80;;;24.90;48.30;;;;;;5025042;28;20072;-62
2021/07/08 05:19:48;;;;;;;1.58;1.20;;;24.90;48.30;;;;;;5021263;28;20035;-59
2021/07/08 05:22:17;;;;;;;1.23;1.13;;;24.90;48.30;;;;;;5025752;28;20041;-60
2021/07/08 05:24:43;;;;;;;1.52;1.10;;;24.90;48.30;;;;;;5021274;28;20038;-63
2021/07/08 05:27:16;;;;;;;1.45;1.23;;;24.90;48.30;;;;;;5010943;28;20042;-62
2021/07/08 05:29:45;;;;;;;2.33;1.08;;;24.90;48.30;;;;;;5016624;28;20054;-64
2021/07/08 05:32:15;;;;;;;1.83;1.23;;;24.90;48.40;;;;;;5010057;28;21217;-63
2021/07/08 05:34:42;;;;;;;1.73;1.23;;;24.90;48.40;;;;;;5016451;28;20091;-60
2021/07/08 05:37:08;;;;;;;1.75;1.10;;;24.90;48.50;;;;;;5016624;28;20036;-61
2021/07/08 05:39:35;;;;;;;2.03;1.40;;;24.90;48.60;;;;;;5011653;28;20102;-55
2021/07/08 05:42:01;;;;;;;1.67;1.25;;;25.00;48.60;;;;;;5013650;28;20045;-57
2021/07/08 05:44:27;;;;;;;1.40;1.27;;;25.00;48.70;;;;;;5014233;28;20088;-57
2021/07/08 05:46:58;;;;;;;1.95;1.30;;;25.00;48.70;;;;;;5019875;28;20469;-59
2021/07/08 05:49:25;;;;;;;2.63;1.33;;;25.00;48.80;;;;;;5026114;28;20448;-60
2021/07/08 05:51:51;;;;;;;1.63;1.20;;;25.00;48.80;;;;;;5021664;28;20030;-56
2021/07/08 05:54:17;;;;;;;1.60;1.10;;;25.00;48.80;;;;;;5018128;28;20079;-61
2021/07/08 05:56:43;;;;;;;1.55;1.00;;;25.00;48.90;;;;;;5013690;28;20461;-59
2021/07/08 05:59:08;;;;;;;1.58;1.10;;;25.00;48.90;;;;;;5014139;28;20105;-57
2021/07/08 06:01:34;;;;;;;1.88;1.60;;;25.00;49.00;;;;;;5017626;28;20073;-61
2021/07/08 06:04:00;;;;;;;1.95;1.33;;;25.00;49.00;;;;;;5013905;28;20207;-56
2021/07/08 06:06:26;;;;;;;2.05;1.42;;;25.00;49.10;;;;;;5014529;28;20061;-59
2021/07/08 06:08:52;;;;;;;1.80;1.40;;;25.00;49.10;;;;;;5015029;28;20037;-58
2021/07/08 06:11:18;;;;;;;1.92;1.65;;;25.00;49.20;;;;;;5009767;28;20042;-59
2021/07/08 06:13:44;;;;;;;1.52;1.40;;;25.00;49.20;;;;;;5015405;28;20049;-59
2021/07/08 06:16:10;;;;;;;2.33;1.55;;;25.00;49.20;;;;;;5019520;28;20337;-61
2021/07/08 06:18:36;;;;;;;2.30;1.50;;;25.00;49.20;;;;;;5020318;28;20433;-63
2021/07/08 06:21:04;;;;;;;2.50;1.80;;;25.00;49.30;;;;;;5024234;28;20425;-64
2021/07/08 06:23:31;;;;;;;2.50;2.30;;;25.00;49.40;;;;;;5020125;28;20026;-60
2021/07/08 06:25:58;;;;;;;2.63;2.28;;;25.10;49.60;;;;;;5022405;28;20029;-62
2021/07/08 06:28:24;;;;;;;3.45;2.92;;;25.10;49.90;;;;;;5021509;28;20022;-67
2021/07/08 06:30:50;;;;;;;3.47;3.13;;;25.10;50.00;;;;;;5023175;28;20040;-60
2021/07/08 06:33:15;;;;;;;3.17;2.88;;;25.10;50.20;;;;;;5023596;28;20334;-59
2021/07/08 06:35:42;;;;;;;4.13;3.00;;;25.10;50.20;;;;;;5017954;28;20365;-61
2021/07/08 06:38:08;;;;;;;2.83;2.47;;;25.10;50.10;;;;;;5006407;28;20045;-61
2021/07/08 06:40:34;;;;;;;2.95;2.65;;;25.20;50.10;;;;;;5005461;28;20045;-59
2021/07/08 06:43:00;;;;;;;2.67;2.47;;;25.20;49.90;;;;;;5005206;28;20441;-58
2021/07/08 06:45:27;;;;;;;3.67;2.53;;;25.20;49.80;;;;;;5013161;28;20029;-59
2021/07/08 06:48:02;;;;;;;2.95;2.35;;;25.20;49.70;;;;;;5017677;28;20033;-59
2021/07/08 06:50:28;;;;;;;2.38;2.17;;;25.20;49.50;;;;;;5015856;28;20449;-61
2021/07/08 06:52:54;;;;;;;2.33;2.13;;;25.20;49.50;;;;;;5013488;28;20029;-55
2021/07/08 06:55:20;;;;;;;4.47;2.25;;;25.20;49.40;;;;;;5005420;28;20029;-60
2021/07/08 06:57:52;;;;;;;2.55;2.10;;;25.20;49.30;;;;;;4999172;28;20034;-60
2021/07/08 07:00:25;;;;;;;2.58;1.98;;;25.20;49.30;;;;;;5010276;28;20018;-60
2021/07/08 07:02:53;;;;;;;2.80;1.80;;;25.20;49.40;;;;;;5002047;28;20046;-61
2021/07/08 07:05:19;;;;;;;2.30;1.90;;;25.20;49.30;;;;;;5000415;28;20026;-61
2021/07/08 07:07:45;;;;;;;2.25;1.67;;;25.30;49.40;;;;;;5001374;28;20026;-62
2021/07/08 07:10:12;;;;;;;3.05;1.90;;;25.30;49.50;;;;;;5002695;28;20122;-60
2021/07/08 07:12:45;;;;;;;3.15;1.50;;;25.30;49.40;;;;;;5006121;28;20101;-61
2021/07/08 07:15:13;;;;;;;2.38;1.65;;;25.30;49.40;;;;;;5005144;28;20107;-56
2021/07/08 07:17:39;;;;;;;1.92;1.50;;;25.30;49.30;;;;;;5008218;28;20087;-60
2021/07/08 07:20:08;;;;;;;1.55;1.45;;;25.30;49.30;;;;;;5017841;28;20096;-59
2021/07/08 07:22:34;;;;;;;2.00;1.40;;;25.30;49.20;;;;;;5007992;28;20465;-61
2021/07/08 07:25:00;;;;;;;1.95;1.45;;;25.40;49.30;;;;;;5005525;28;20084;-58
2021/07/08 07:27:27;;;;;;;2.55;1.70;;;25.40;49.20;;;;;;5001407;28;20373;-61
2021/07/08 07:29:53;;;;;;;1.33;1.20;;;25.40;49.10;;;;;;5007582;28;20030;-61
2021/07/08 07:32:19;;;;;;;2.25;1.40;;;25.40;49.10;;;;;;5009189;28;20018;-62
2021/07/08 07:34:45;;;;;;;3.15;1.67;;;25.40;48.90;;;;;;5008491;28;20052;-62
2021/07/08 07:37:11;;;;;;;1.70;1.40;;;25.50;49.00;;;;;;5004098;28;20164;-63
2021/07/08 07:39:37;;;;;;;1.67;1.45;;;25.50;48.90;;;;;;5004405;28;20025;-62
2021/07/08 07:42:04;;;;;;;2.17;1.38;;;25.50;48.80;;;;;;4998752;28;20364;-62
2021/07/08 07:44:30;;;;;;;2.58;1.40;;;25.60;48.80;;;;;;4999291;28;20038;-64
2021/07/08 07:46:55;;;;;;;2.05;1.40;;;25.60;48.80;;;;;;5014705;28;20044;-63
2021/07/08 07:49:23;;;;;;;2.05;1.70;;;25.60;48.80;;;;;;5015093;28;20025;-61
2021/07/08 07:51:49;;;;;;;2.00;1.80;;;25.60;48.80;;;;;;5030213;28;20025;-61
2021/07/08 07:54:15;;;;;;;2.40;1.63;;;25.60;48.80;;;;;;5027737;28;20038;-60
2021/07/08 07:56:41;;;;;;;2.13;1.77;;;25.70;48.80;;;;;;5030007;28;20118;-60
2021/07/08 07:59:06;;;;;;;2.33;2.00;;;25.70;48.80;;;;;;5031982;28;20073;-61
2021/07/08 08:01:32;;;;;;;2.30;1.90;;;25.70;48.80;;;;;;5009416;28;20045;-56
2021/07/08 08:04:00;;;;;;;1.92;1.60;;;25.80;48.80;;;;;;5004739;28;20026;-58
2021/07/08 08:09:10;;;;;;;2.28;1.80;;;25.80;48.60;;;;;;4995725;28;20454;-56
2021/07/08 08:11:37;;;;;;;2.33;1.70;;;25.80;48.50;;;;;;5002964;28;20065;-58
2021/07/08 08:14:03;;;;;;;1.77;1.67;;;25.80;48.40;;;;;;5007053;28;20045;-58
2021/07/08 08:16:33;;;;;;;1.85;1.70;;;25.80;48.40;;;;;;5015399;28;20025;-55
2021/07/08 08:18:59;;;;;;;2.30;1.73;;;25.90;48.40;;;;;;5011623;28;20164;-60
2021/07/08 08:21:24;;;;;;;1.98;1.67;;;25.90;48.90;;;;;;4998545;28;20121;-55
2021/07/08 08:23:50;;;;;;;1.75;1.65;;;25.90;48.20;;;;;;5026543;28;20037;-59
2021/07/08 08:26:16;;;;;;;1.70;1.55;;;25.90;48.10;;;;;;5006603;28;20038;-56
2021/07/08 08:28:42;;;;;;;1.77;1.67;;;25.90;48.10;;;;;;5004646;28;20034;-59
2021/07/08 08:31:08;;;;;;;2.13;1.38;;;25.90;48.10;;;;;;5003126;28;20030;-57
2021/07/08 08:33:34;;;;;;;3.22;1.70;;;25.90;48.00;;;;;;5008475;28;20034;-59
2021/07/08 08:36:02;;;;;;;2.83;1.80;;;25.90;48.60;;;;;;5005926;28;20038;-59
2021/07/08 08:38:28;;;;;;;1.95;1.50;;;25.90;47.90;;;;;;5006829;28;20105;-59
2021/07/08 08:40:56;;;;;;;1.33;1.23;;;25.90;47.80;;;;;;5008094;28;20695;-57
2021/07/08 08:43:22;;;;;;;1.48;1.30;;;25.90;47.70;;;;;;5002568;28;20030;-58
2021/07/08 08:45:49;;;;;;;1.42;1.30;;;25.90;47.70;;;;;;5002688;28;20030;-58
2021/07/08 08:48:15;;;;;;;1.40;1.20;;;25.90;47.70;;;;;;5002160;28;20124;-59
2021/07/08 08:50:48;;;;;;;1.67;1.20;;;25.90;47.60;;;;;;5007614;28;20025;-59
2021/07/08 08:53:16;;;;;;;1.33;1.23;;;26.00;47.60;;;;;;5001711;28;20033;-58
2021/07/08 08:55:43;;;;;;;2.33;1.30;;;25.90;47.50;;;;;;5003096;28;20026;-59
2021/07/08 08:58:12;;;;;;;2.13;1.10;;;26.00;47.50;;;;;;5018016;28;20199;-55
2021/07/08 09:00:47;;;;;;;1.40;1.27;;;26.00;47.50;;;;;;5014326;28;20035;-58
2021/07/08 09:03:28;;;;;;;1.35;1.20;;;26.00;47.40;;;;;;5022741;28;20033;-62
2021/07/08 09:06:00;;;;;;;1.95;1.20;;;26.00;47.30;;;;;;5017328;28;20049;-60
2021/07/08 09:08:26;;;;;;;1.88;1.45;;;26.00;47.30;;;;;;5022830;28;20104;-57
2021/07/08 09:11:01;;;;;;;1.92;1.30;;;26.10;47.40;;;;;;5040632;28;20037;-62
2021/07/08 09:13:44;;;;;;;1.17;1.08;;;26.00;47.20;;;;;;5031593;28;20025;-59
2021/07/08 09:16:14;;;;;;;1.40;1.10;;;26.00;47.20;;;;;;5031899;28;20109;-59
2021/07/08 09:18:43;;;;;;;1.77;1.10;;;26.10;47.20;;;;;;5023854;28;20120;-61
2021/07/08 09:21:17;;;;;;;1.58;1.48;;;26.10;47.20;;;;;;5015152;28;20052;-58
2021/07/08 09:24:04;;;;;;;1.55;1.30;;;26.10;47.10;;;;;;5019621;28;20060;-65
2021/07/08 09:26:30;;;;;;;1.58;1.35;;;26.20;47.20;;;;;;5026943;28;20049;-63
2021/07/08 09:29:29;;;;;;;1.23;1.08;;;26.10;47.10;;;;;;5023141;28;20449;-57
2021/07/08 09:32:01;;;;;;;3.55;1.40;;;26.20;47.10;;;;;;5011333;28;20048;-55
2021/07/08 09:34:34;;;;;;;1.38;1.17;;;26.20;47.20;;;;;;5022561;28;20033;-57
2021/07/08 09:37:13;;;;;;;1.50;1.40;;;26.20;47.10;;;;;;5018131;28;20442;-59
2021/07/08 09:39:42;;;;;;;1.63;1.30;;;26.20;47.00;;;;;;5022015;28;20495;-59
2021/07/08 09:42:09;;;;;;;1.67;1.52;;;26.20;47.00;;;;;;5025371;28;20068;-54
2021/07/08 09:44:36;;;;;;;1.50;1.20;;;26.20;47.00;;;;;;5020723;28;20353;-55
2021/07/08 09:47:02;;;;;;;1.70;1.33;;;26.20;47.00;;;;;;5029896;28;20175;-58
2021/07/08 09:49:29;;;;;;;1.33;1.13;;;26.30;47.00;;;;;;5019106;28;20226;-57
2021/07/08 09:51:56;;;;;;;1.95;1.50;;;26.30;46.90;;;;;;5026960;28;20022;-61
2021/07/08 09:57:45;;;;;;;2.00;1.42;;;26.30;46.80;;;;;;5021025;28;20360;-57
2021/07/08 10:00:20;;;;;;;1.30;1.20;;;26.30;46.80;;;;;;5005210;28;20056;-58
2021/07/08 10:02:47;;;;;;;2.15;1.50;;;26.30;46.80;;;;;;5019904;28;20045;-61
2021/07/08 10:05:13;;;;;;;1.40;1.30;;;26.30;46.80;;;;;;5028014;28;20044;-59
2021/07/08 10:07:39;;;;;;;1.52;1.25;;;26.40;46.80;;;;;;5018239;28;20037;-60
2021/07/08 10:10:06;;;;;;;1.35;1.25;;;26.30;46.70;;;;;;5018829;28;20037;-59
2021/07/08 10:12:33;;;;;;;1.60;1.40;;;26.30;46.70;;;;;;5024804;28;20037;-66
2021/07/08 10:15:06;;;;;;;2.05;1.40;;;26.30;46.60;;;;;;5015971;28;20045;-66
2021/07/08 10:17:35;;;;;;;1.60;1.50;;;26.40;46.60;;;;;;5020444;28;20052;-63
2021/07/08 10:20:03;;;;;;;1.90;1.55;;;26.40;46.60;;;;;;5035946;28;20564;-62
2021/07/08 10:22:30;;;;;;;1.50;1.40;;;26.40;46.50;;;;;;5032661;28;20045;-59
2021/07/08 10:24:56;;;;;;;1.85;1.52;;;26.40;47.20;;;;;;5016234;28;20022;-63
2021/07/08 10:27:23;;;;;;;1.48;1.35;;;26.40;46.50;;;;;;5021492;28;20423;-62
2021/07/08 10:29:51;;;;;;;1.58;1.27;;;26.50;46.60;;;;;;5025802;28;20091;-60
2021/07/08 10:32:18;;;;;;;1.42;1.33;;;26.40;46.40;;;;;;5018640;28;20036;-63
2021/07/08 10:34:48;;;;;;;1.98;1.40;;;26.40;46.40;;;;;;5024084;28;20037;-63
2021/07/08 10:37:29;;;;;;;1.63;1.52;;;26.50;46.70;;;;;;5018218;28;20021;-63
2021/07/08 10:39:57;;;;;;;1.83;1.30;;;26.50;46.30;;;;;;5023989;28;20145;-62
2021/07/08 10:42:49;;;;;;;2.10;1.13;;;26.50;46.40;;;;;;5019074;28;20041;-61
2021/07/08 10:45:34;;;;;;;1.40;1.30;;;26.50;46.20;;;;;;5022053;28;20030;-61
2021/07/08 10:48:09;;;;;;;;;;;26.50;46.10;;;;;;5029835;28;20040;-61
2021/07/08 10:50:38;;;;;;;1.27;1.05;;;26.40;46.20;;;;;;5025528;28;20325;-62
2021/07/08 10:53:27;;;;;;;1.48;1.00;;;26.40;46.10;;;;;;5022244;28;20052;-63
2021/07/08 10:55:59;;;;;;;1.65;1.30;;;26.50;46.00;;;;;;5023449;28;20064;-62
2021/07/08 10:58:51;;;;;;;1.42;1.20;;;26.50;46.00;;;;;;5016047;28;20045;-61
2021/07/08 11:01:31;;;;;;;1.90;1.17;;;26.50;45.90;;;;;;5015085;28;20045;-61
2021/07/08 11:04:00;;;;;;;1.35;0.98;;;26.50;46.00;;;;;;5021492;28;20052;-57
2021/07/08 11:06:35;;;;;;;1.30;1.20;;;26.50;45.90;;;;;;5014073;28;20026;-63
2021/07/08 11:09:05;;;;;;;1.08;0.90;;;26.50;45.90;;;;;;5013942;28;20041;-64
2021/07/08 11:11:33;;;;;;;3.22;1.08;;;26.50;46.00;;;;;;5020605;28;20462;-60
2021/07/08 11:14:11;;;;;;;1.73;1.02;;;26.50;46.00;;;;;;5000382;28;20096;-59
2021/07/08 11:16:43;;;;;;;2.25;1.20;;;26.60;46.00;;;;;;5018960;28;20044;-62
2021/07/08 11:19:15;;;;;;;1.65;1.23;;;26.60;46.00;;;;;;5027112;28;20083;-60
2021/07/08 11:21:57;;;;;;;1.10;1.00;;;26.60;46.00;;;;;;5030241;28;20030;-56
2021/07/08 11:24:28;;;;;;;1.20;0.95;;;26.60;46.50;;;;;;5012726;28;20167;-57
2021/07/08 11:27:05;;;;;;;2.80;1.00;;;26.60;45.90;;;;;;5016188;28;20190;-57
2021/07/08 11:29:46;;;;;;;1.33;1.10;;;26.60;45.90;;;;;;5022451;28;20487;-59
2021/07/08 11:32:29;;;;;;;2.28;1.10;;;26.60;45.80;;;;;;5019486;28;20030;-62
2021/07/08 11:35:11;;;;;;;1.75;1.02;;;26.70;45.90;;;;;;5017379;28;20487;-58
2021/07/08 11:37:44;;;;;;;1.45;0.80;;;26.70;45.80;;;;;;5019197;28;20061;-59
2021/07/08 11:40:17;;;;;;;1.57;0.90;;;26.70;45.80;;;;;;5025434;28;20116;-58
2021/07/08 11:42:46;;;;;;;0.73;0.73;;;26.70;45.70;;;;;;5017658;28;20068;-61
2021/07/08 11:45:16;;;;;;;2.03;0.77;;;26.80;45.70;;;;;;5021453;28;20292;-60
2021/07/08 11:47:48;;;;;;;4.78;1.10;;;26.80;45.60;;;;;;5018577;28;20045;-58
2021/07/08 11:50:18;;;;;;;1.60;1.00;;;26.80;45.60;;;;;;5027581;28;20044;-58
2021/07/08 11:52:45;;;;;;;1.17;1.00;;;26.80;45.50;;;;;;5020117;28;20113;-53
2021/07/08 11:55:11;;;;;;;1.33;0.88;;;26.80;45.50;;;;;;5017319;28;20030;-56
2021/07/08 11:58:11;;;;;;;1.80;0.88;;;26.80;45.40;;;;;;5014617;28;20033;-60
2021/07/08 12:00:42;;;;;;;0.88;0.88;;;26.80;45.30;;;;;;5002603;28;20430;-58
2021/07/08 12:03:30;;;;;;;1.67;1.00;;;26.80;45.30;;;;;;5014498;28;20046;-62
2021/07/08 12:06:05;;;;;;;1.77;0.95;;;26.80;45.20;;;;;;5014391;28;20060;-57
2021/07/08 12:08:43;;;;;;;0.80;0.77;;;26.80;45.20;;;;;;5014270;28;20026;-59
2021/07/08 12:11:17;;;;;;;0.77;0.77;;;26.80;45.00;;;;;;5014584;28;20033;-58
2021/07/08 12:14:09;;;;;;;;;;;26.80;45.00;;;;;;5014883;28;20040;-61
2021/07/08 12:16:45;;;;;;;1.20;0.85;;;26.80;45.00;;;;;;5014403;28;20208;-61
2021/07/08 12:19:18;;;;;;;1.00;0.88;;;26.80;44.90;;;;;;5033934;28;20099;-60
2021/07/08 12:21:52;;;;;;;0.80;0.80;;;26.80;44.80;;;;;;5018470;28;20453;-61
2021/07/08 12:24:33;;;;;;;1.45;0.88;;;26.80;44.70;;;;;;5030159;28;20060;-60
2021/07/08 12:27:07;;;;;;;1.27;0.70;;;26.90;44.60;;;;;;5021078;28;20149;-60
2021/07/08 12:29:52;;;;;;;2.38;1.05;;;26.90;44.60;;;;;;5014307;28;20132;-61
2021/07/08 12:32:22;;;;;;;0.95;0.80;;;26.80;44.50;;;;;;5019298;28;20056;-61
2021/07/08 12:34:58;;;;;;;1.33;0.95;;;26.90;44.60;;;;;;5021619;28;20029;-61
2021/07/08 12:37:30;;;;;;;1.23;0.98;;;26.90;44.60;;;;;;5021964;28;20032;-61
2021/07/08 12:40:00;;;;;;;1.40;1.10;;;26.90;44.50;;;;;;5021659;28;20026;-62
2021/07/08 12:42:30;;;;;;;0.95;0.80;;;26.90;44.70;;;;;;5024608;28;20045;-57
2021/07/08 12:45:05;;;;;;;1.38;0.90;;;26.90;44.70;;;;;;5020279;28;20044;-60
2021/07/08 12:47:31;;;;;;;0.93;0.80;;;27.00;44.80;;;;;;5025258;28;20061;-61
2021/07/08 12:49:59;;;;;;;1.80;0.98;;;27.00;44.90;;;;;;5014085;28;20117;-61
2021/07/08 12:52:25;;;;;;;3.50;1.13;;;27.00;44.90;;;;;;5013570;28;20033;-58
2021/07/08 12:54:51;;;;;;;0.90;0.90;;;27.00;44.90;;;;;;5014169;28;20044;-64
2021/07/08 12:57:21;;;;;;;1.42;1.02;;;27.00;45.00;;;;;;5015747;28;20037;-61
2021/07/08 12:59:59;;;;;;;1.02;0.98;;;27.00;44.90;;;;;;5019287;28;20361;-57
2021/07/08 13:02:26;;;;;;;1.08;0.80;;;27.10;44.90;;;;;;5018914;28;20065;-54